createdAt,value
2023-04-25T00:01:01.177Z,100578.00
2023-04-25T00:03:30.901Z,100586.91
2023-04-25T00:05:59.238Z,100587.88
2023-04-25T00:08:27.577Z,100590.91
2023-04-25T00:10:55.705Z,100598.34
2023-04-25T00:13:23.984Z,100589.81
2023-04-25T00:15:54.186Z,100591.72
2023-04-25T00:18:22.348Z,100593.41
2023-04-25T00:20:51.067Z,100591.38
2023-04-25T00:23:19.707Z,100585.94
2023-04-25T00:25:48.046Z,100589.66
2023-04-25T00:28:16.503Z,100592.50
2023-04-25T00:30:45.046Z,100589.94
2023-04-25T00:33:14.813Z,100595.25
2023-04-25T00:35:43.214Z,100582.91
2023-04-25T00:38:11.477Z,100591.75
2023-04-25T00:40:39.466Z,100605.06
2023-04-25T00:43:07.699Z,100603.34
2023-04-25T00:45:40.260Z,100608.66
2023-04-25T00:48:09.000Z,100613.97
2023-04-25T00:50:38.972Z,100611.50
2023-04-25T00:53:07.405Z,100619.56
2023-04-25T00:55:37.274Z,100610.94
2023-04-25T00:58:05.523Z,100614.72
2023-04-25T01:00:33.702Z,100617.47
2023-04-25T01:03:04.029Z,100614.28
2023-04-25T01:05:32.427Z,100617.03
2023-04-25T01:08:02.007Z,100617.78
2023-04-25T01:10:30.336Z,100614.34
2023-04-25T01:12:58.613Z,100602.97
2023-04-25T01:15:27.356Z,100603.81
2023-04-25T01:17:56.519Z,100609.22
2023-04-25T01:20:25.216Z,100605.06
2023-04-25T01:22:54.862Z,100595.75
2023-04-25T01:25:23.414Z,100589.91
2023-04-25T01:27:51.610Z,100592.56
2023-04-25T01:30:19.987Z,100591.59
2023-04-25T01:32:49.721Z,100591.78
2023-04-25T01:35:17.933Z,100587.59
2023-04-25T01:37:46.956Z,100584.19
2023-04-25T01:40:16.646Z,100575.66
2023-04-25T01:42:45.996Z,100579.28
2023-04-25T01:45:14.491Z,100583.63
2023-04-25T01:47:44.093Z,100580.88
2023-04-25T01:50:12.890Z,100589.69
2023-04-25T01:52:41.036Z,100596.88
2023-04-25T01:55:10.205Z,100597.06
2023-04-25T01:57:43.002Z,100596.13
2023-04-25T02:00:11.873Z,100603.41
2023-04-25T02:02:42.709Z,100601.94
2023-04-25T02:05:37.915Z,100603.06
2023-04-25T02:08:09.410Z,100603.31
2023-04-25T02:10:38.224Z,100601.81
2023-04-25T02:13:16.963Z,100603.69
2023-04-25T02:16:08.283Z,100603.88
2023-04-25T02:18:40.219Z,100608.41
2023-04-25T02:21:08.870Z,100599.59
2023-04-25T02:23:37.551Z,100604.06
2023-04-25T02:26:05.906Z,100605.94
2023-04-25T02:28:35.680Z,100602.53
2023-04-25T02:31:06.580Z,100606.91
2023-04-25T02:33:34.642Z,100596.28
2023-04-25T02:36:02.693Z,100606.31
2023-04-25T02:38:31.254Z,100599.47
2023-04-25T02:40:59.549Z,100595.19
2023-04-25T02:43:28.187Z,100597.94
2023-04-25T02:45:57.643Z,100599.84
2023-04-25T02:48:26.038Z,100592.81
2023-04-25T02:50:54.167Z,100590.94
2023-04-25T02:53:22.292Z,100583.03
2023-04-25T02:55:53.794Z,100590.06
2023-04-25T02:58:22.011Z,100594.34
2023-04-25T03:00:53.498Z,100590.94
2023-04-25T03:03:23.864Z,100584.94
2023-04-25T03:05:53.555Z,100586.75
2023-04-25T03:08:33.440Z,100584.09
2023-04-25T03:11:02.967Z,100593.75
2023-04-25T03:13:31.297Z,100591.28
2023-04-25T03:16:00.444Z,100591.28
2023-04-25T03:18:30.029Z,100595.66
2023-04-25T03:20:58.180Z,100578.97
2023-04-25T03:23:27.148Z,100580.09
2023-04-25T03:25:55.369Z,100575.94
2023-04-25T03:28:23.903Z,100577.88
2023-04-25T03:30:52.493Z,100574.47
2023-04-25T03:33:20.792Z,100583.66
2023-04-25T03:35:51.049Z,100569.59
2023-04-25T03:38:19.381Z,100574.91
2023-04-25T03:40:47.795Z,100572.44
2023-04-25T03:43:21.112Z,100584.66
2023-04-25T03:45:55.333Z,100584.66
2023-04-25T03:48:25.872Z,100589.97
2023-04-25T03:50:57.351Z,100585.41
2023-04-25T03:53:25.855Z,100590.06
2023-04-25T03:56:12.895Z,100586.63
2023-04-25T03:58:42.056Z,100589.97
2023-04-25T04:01:10.728Z,100587.41
2023-04-25T04:03:40.879Z,100585.88
2023-04-25T04:06:11.901Z,100587.00
2023-04-25T04:08:45.225Z,100588.97
2023-04-25T04:11:13.850Z,100591.72
2023-04-25T04:13:41.871Z,100584.88
2023-04-25T04:16:10.447Z,100584.38
2023-04-25T04:18:38.909Z,100590.50
2023-04-25T04:21:07.181Z,100596.88
2023-04-25T04:23:39.982Z,100599.66
2023-04-25T04:26:09.685Z,100596.16
2023-04-25T04:28:46.547Z,100593.59
2023-04-25T04:31:22.682Z,100593.69
2023-04-25T04:33:51.155Z,100597.38
2023-04-25T04:36:21.055Z,100606.41
2023-04-25T04:38:51.214Z,100597.72
2023-04-25T04:41:33.705Z,100601.81
2023-04-25T04:44:11.260Z,100610.34
2023-04-25T04:46:53.138Z,100610.53
2023-04-25T04:49:54.309Z,100611.97
2023-04-25T04:52:34.065Z,100615.22
2023-04-25T04:55:22.292Z,100614.78
2023-04-25T04:58:09.131Z,100616.16
2023-04-25T05:00:53.612Z,100612.91
2023-04-25T05:03:34.934Z,100634.44
2023-04-25T05:06:23.387Z,100630.13
2023-04-25T05:09:12.255Z,100634.22
2023-04-25T05:12:05.526Z,100632.81
2023-04-25T05:14:51.792Z,100636.22
2023-04-25T05:17:40.248Z,100635.28
2023-04-25T05:20:34.598Z,100629.06
2023-04-25T05:23:21.317Z,100637.56
2023-04-25T05:26:00.694Z,100637.06
2023-04-25T05:28:59.795Z,100640.31
2023-04-25T05:31:49.423Z,100633.84
2023-04-25T05:34:18.826Z,100643.22
2023-04-25T05:36:57.404Z,100654.25
2023-04-25T05:39:26.327Z,100653.03
2023-04-25T05:42:26.526Z,100653.03
2023-04-25T05:45:19.425Z,100645.84
2023-04-25T05:47:56.227Z,100648.97
2023-04-25T05:50:35.107Z,100650.59
2023-04-25T05:53:14.011Z,100649.56
2023-04-25T05:55:44.677Z,100648.31
2023-04-25T05:58:31.409Z,100642.25
2023-04-25T06:01:02.460Z,100650.69
2023-04-25T06:03:31.504Z,100652.44
2023-04-25T06:06:00.225Z,100654.56
2023-04-25T06:08:28.397Z,100661.72
2023-04-25T06:10:56.465Z,100654.47
2023-04-25T06:13:25.048Z,100662.16
2023-04-25T06:15:53.222Z,100673.13
2023-04-25T06:18:23.234Z,100677.44
2023-04-25T06:20:51.681Z,100687.69
2023-04-25T06:23:20.507Z,100689.00
2023-04-25T06:26:01.048Z,100696.88
2023-04-25T06:28:30.447Z,100705.13
2023-04-25T06:30:58.629Z,100707.78
2023-04-25T06:33:28.691Z,100713.94
2023-04-25T06:35:58.209Z,100702.75
2023-04-25T06:38:29.168Z,100701.06
2023-04-25T06:40:59.163Z,100670.88
2023-04-25T06:43:34.152Z,100644.00
2023-04-25T06:46:17.807Z,100627.72
2023-04-25T06:48:50.640Z,100604.72
2023-04-25T06:51:23.589Z,100557.00
2023-04-25T06:53:54.066Z,100531.03
2023-04-25T06:56:31.989Z,100523.56
2023-04-25T06:59:06.125Z,100515.47
2023-04-25T07:01:37.562Z,100511.41
2023-04-25T07:04:12.471Z,100503.63
2023-04-25T07:06:48.056Z,100491.28
2023-04-25T07:09:18.492Z,100490.56
2023-04-25T07:11:49.006Z,100477.53
2023-04-25T07:14:17.302Z,100475.16
2023-04-25T07:16:45.411Z,100465.97
2023-04-25T07:19:15.521Z,100479.78
2023-04-25T07:21:44.018Z,100478.00
2023-04-25T07:24:13.299Z,100468.81
2023-04-25T07:26:46.717Z,100470.53
2023-04-25T07:29:38.471Z,100465.28
2023-04-25T07:32:06.844Z,100454.47
2023-04-25T07:34:38.364Z,100459.72
2023-04-25T07:37:06.666Z,100461.44
2023-04-25T07:39:44.053Z,100467.41
2023-04-25T07:42:12.612Z,100464.44
2023-04-25T07:44:44.067Z,100466.53
2023-04-25T07:47:14.779Z,100465.63
2023-04-25T07:49:44.679Z,100453.34
2023-04-25T07:52:12.926Z,100465.34
2023-04-25T07:54:46.427Z,100458.06
2023-04-25T07:57:19.594Z,100461.25
2023-04-25T07:59:49.410Z,100468.25
2023-04-25T08:02:17.745Z,100464.88
2023-04-25T08:04:50.753Z,100458.13
2023-04-25T08:07:19.958Z,100459.53
2023-04-25T08:09:53.608Z,100458.66
2023-04-25T08:12:27.495Z,100461.69
2023-04-25T08:14:55.779Z,100462.25
2023-04-25T08:17:29.084Z,100463.09
2023-04-25T08:19:59.503Z,100458.53
2023-04-25T08:22:33.262Z,100462.91
2023-04-25T08:25:22.102Z,100468.38
2023-04-25T08:27:50.328Z,100474.06
2023-04-25T08:30:22.025Z,100480.88
2023-04-25T08:32:50.777Z,100474.34
2023-04-25T08:35:38.045Z,100477.09
2023-04-25T08:38:06.129Z,100486.72
2023-04-25T08:40:37.485Z,100485.22
2023-04-25T08:43:20.651Z,100481.50
2023-04-25T08:45:49.366Z,100483.50
2023-04-25T08:48:29.855Z,100479.75
2023-04-25T08:51:00.955Z,100480.28
2023-04-25T08:53:31.005Z,100486.44
2023-04-25T08:56:02.754Z,100480.47
2023-04-25T08:58:35.728Z,100485.00
2023-04-25T09:01:04.778Z,100489.19
2023-04-25T09:03:39.092Z,100487.84
2023-04-25T09:06:09.494Z,100484.22
2023-04-25T09:08:38.987Z,100484.94
2023-04-25T09:11:07.486Z,100486.13
2023-04-25T09:13:35.962Z,100490.25
2023-04-25T09:16:59.214Z,100488.53
2023-04-25T09:19:42.079Z,100488.16
2023-04-25T09:22:23.942Z,100486.88
2023-04-25T09:24:52.423Z,100485.63
2023-04-25T09:27:24.408Z,100488.97
2023-04-25T09:29:59.904Z,100487.72
2023-04-25T09:32:29.878Z,100491.50
2023-04-25T09:35:01.687Z,100494.88
2023-04-25T09:37:33.499Z,100494.66
2023-04-25T09:40:09.234Z,100495.25
2023-04-25T09:42:50.625Z,100498.41
2023-04-25T09:45:19.776Z,100501.81
2023-04-25T09:47:47.930Z,100493.06
2023-04-25T09:50:21.289Z,100491.25
2023-04-25T09:53:06.726Z,100496.78
2023-04-25T09:55:55.720Z,100483.56
2023-04-25T09:58:25.237Z,100488.22
2023-04-25T10:00:53.806Z,100498.94
2023-04-25T10:03:35.582Z,100489.34
2023-04-25T10:06:21.428Z,100487.09
2023-04-25T10:08:54.696Z,100483.56
2023-04-25T10:11:24.256Z,100487.16
2023-04-25T10:13:52.838Z,100483.75
2023-04-25T10:16:21.473Z,100492.84
2023-04-25T10:18:50.673Z,100494.19
2023-04-25T10:21:21.074Z,100487.75
2023-04-25T10:23:49.936Z,100485.88
2023-04-25T10:26:20.059Z,100481.59
2023-04-25T10:28:57.775Z,100478.53
2023-04-25T10:31:26.129Z,100473.34
2023-04-25T10:33:54.351Z,100477.28
2023-04-25T10:36:23.703Z,100478.16
2023-04-25T10:38:52.972Z,100482.50
2023-04-25T10:41:24.049Z,100474.56
2023-04-25T10:43:52.849Z,100468.88
2023-04-25T10:46:23.995Z,100470.91
2023-04-25T10:48:53.620Z,100472.25
2023-04-25T10:51:23.281Z,100471.50
2023-04-25T10:54:01.494Z,100465.59
2023-04-25T10:56:32.234Z,100469.94
2023-04-25T10:59:08.026Z,100456.25
2023-04-25T11:01:40.545Z,100447.47
2023-04-25T11:04:09.053Z,100453.72
2023-04-25T11:06:45.346Z,100450.94
2023-04-25T11:09:15.189Z,100463.53
2023-04-25T11:11:45.164Z,100453.09
2023-04-25T11:14:13.277Z,100452.25
2023-04-25T11:16:41.449Z,100455.38
2023-04-25T11:19:09.743Z,100451.00
2023-04-25T11:21:38.394Z,100454.75
2023-04-25T11:24:07.133Z,100450.75
2023-04-25T11:26:35.523Z,100437.25
2023-04-25T11:29:05.289Z,100444.91
2023-04-25T11:31:33.581Z,100442.69
2023-04-25T11:34:02.596Z,100440.22
2023-04-25T11:36:31.928Z,100443.09
2023-04-25T11:39:00.182Z,100435.91
2023-04-25T11:41:28.277Z,100441.75
2023-04-25T11:43:56.723Z,100441.78
2023-04-25T11:46:26.703Z,100424.84
2023-04-25T11:48:57.963Z,100428.25
2023-04-25T11:51:26.528Z,100435.25
2023-04-25T11:53:54.644Z,100432.09
2023-04-25T11:56:22.948Z,100431.63
2023-04-25T11:58:58.019Z,100430.34
2023-04-25T12:01:35.217Z,100437.94
2023-04-25T12:04:13.554Z,100428.06
2023-04-25T12:06:42.359Z,100431.84
2023-04-25T12:09:11.855Z,100429.94
2023-04-25T12:11:43.989Z,100434.81
2023-04-25T12:14:12.199Z,100429.34
2023-04-25T12:16:45.909Z,100433.53
2023-04-25T12:19:16.062Z,100426.63
2023-04-25T12:21:57.354Z,100428.09
2023-04-25T12:24:28.705Z,100422.63
2023-04-25T12:27:01.650Z,100419.28
2023-04-25T12:29:34.836Z,100416.75
2023-04-25T12:32:08.265Z,100410.78
2023-04-25T12:34:37.484Z,100409.34
2023-04-25T12:37:06.314Z,100405.28
2023-04-25T12:39:34.554Z,100405.28
2023-04-25T12:42:03.429Z,100396.44
2023-04-25T12:44:32.010Z,100410.72
2023-04-25T12:47:01.114Z,100400.28
2023-04-25T12:49:30.909Z,100401.63
2023-04-25T12:51:59.075Z,100414.66
2023-04-25T12:54:27.106Z,100412.47
2023-04-25T12:56:56.112Z,100399.63
2023-04-25T12:59:24.541Z,100405.31
2023-04-25T13:01:52.651Z,100409.53
2023-04-25T13:04:22.182Z,100399.66
2023-04-25T13:06:52.019Z,100401.03
2023-04-25T13:09:20.088Z,100400.16
2023-04-25T13:11:48.274Z,100409.41
2023-04-25T13:14:16.837Z,100411.84
2023-04-25T13:16:44.965Z,100412.31
2023-04-25T13:19:13.796Z,100396.91
2023-04-25T13:21:42.157Z,100402.75
2023-04-25T13:24:11.638Z,100397.06
2023-04-25T13:26:39.893Z,100407.75
2023-04-25T13:29:08.006Z,100408.72
2023-04-25T13:31:36.419Z,100403.09
2023-04-25T13:34:04.798Z,100416.69
2023-04-25T13:36:32.978Z,100410.47
2023-04-25T13:39:01.061Z,100407.59
2023-04-25T13:41:30.886Z,100408.22
2023-04-25T13:43:59.061Z,100408.53
2023-04-25T13:46:44.715Z,100407.78
2023-04-25T13:49:14.296Z,100402.16
2023-04-25T13:51:43.756Z,100407.81
2023-04-25T13:54:12.312Z,100403.97
2023-04-25T13:56:43.386Z,100394.78
2023-04-25T13:59:11.808Z,100399.38
2023-04-25T14:01:40.035Z,100398.44
2023-04-25T14:04:08.060Z,100393.19
2023-04-25T14:06:36.606Z,100404.34
2023-04-25T14:09:05.594Z,100402.03
2023-04-25T14:11:33.796Z,100398.13
2023-04-25T14:14:03.584Z,100400.63
2023-04-25T14:16:32.626Z,100396.00
2023-04-25T14:19:01.430Z,100396.25
2023-04-25T14:21:29.639Z,100395.03
2023-04-25T14:23:57.701Z,100392.09
2023-04-25T14:26:26.032Z,100390.16
2023-04-25T14:28:54.199Z,100396.97
2023-04-25T14:31:24.143Z,100388.84
2023-04-25T14:33:52.968Z,100390.44
2023-04-25T14:36:21.541Z,100390.56
2023-04-25T14:38:49.666Z,100400.94
2023-04-25T14:41:17.811Z,100400.94
2023-04-25T14:43:46.360Z,100401.53
2023-04-25T14:46:14.503Z,100399.28
2023-04-25T14:48:44.244Z,100390.84
2023-04-25T14:51:12.356Z,100403.38
2023-04-25T14:53:40.494Z,100392.25
2023-04-25T14:56:09.950Z,100396.44
2023-04-25T14:58:38.873Z,100392.00
2023-04-25T15:01:07.959Z,100397.75
2023-04-25T15:03:36.731Z,100401.06
2023-04-25T15:06:07.321Z,100409.00
2023-04-25T15:08:35.811Z,100397.41
2023-04-25T15:11:04.507Z,100398.88
2023-04-25T15:13:33.175Z,100402.72
2023-04-25T15:16:01.212Z,100406.47
2023-04-25T15:18:29.375Z,100402.78
2023-04-25T15:20:57.970Z,100404.03
2023-04-25T15:23:29.623Z,100400.91
2023-04-25T15:25:58.034Z,100399.38
2023-04-25T15:28:26.362Z,100402.09
2023-04-25T15:30:54.526Z,100406.88
2023-04-25T15:33:22.622Z,100400.69
2023-04-25T15:35:50.750Z,100395.13
2023-04-25T15:38:19.034Z,100399.72
2023-04-25T15:40:48.618Z,100398.41
2023-04-25T15:43:17.427Z,100387.59
2023-04-25T15:45:46.187Z,100390.00
2023-04-25T15:48:14.496Z,100388.94
2023-04-25T15:50:42.801Z,100390.28
2023-04-25T15:53:11.489Z,100379.78
2023-04-25T15:55:39.901Z,100379.59
2023-04-25T15:58:12.114Z,100380.09
2023-04-25T16:00:41.321Z,100379.41
2023-04-25T16:03:09.734Z,100379.69
2023-04-25T16:05:38.017Z,100378.38
2023-04-25T16:08:06.681Z,100382.13
2023-04-25T16:10:34.842Z,100381.19
2023-04-25T16:13:03.513Z,100385.84
2023-04-25T16:15:35.443Z,100382.75
2023-04-25T16:18:04.068Z,100370.13
2023-04-25T16:20:32.552Z,100377.88
2023-04-25T16:23:01.458Z,100376.56
2023-04-25T16:25:29.908Z,100365.22
2023-04-25T16:27:58.398Z,100365.75
2023-04-25T16:30:27.795Z,100365.91
2023-04-25T16:32:58.030Z,100373.00
2023-04-25T16:35:30.505Z,100361.00
2023-04-25T16:37:58.915Z,100367.94
2023-04-25T16:40:27.696Z,100364.03
2023-04-25T16:42:56.133Z,100372.16
2023-04-25T16:45:24.700Z,100370.16
2023-04-25T16:47:53.316Z,100377.25
2023-04-25T16:50:22.858Z,100373.66
2023-04-25T16:52:51.184Z,100379.28
2023-04-25T16:55:19.485Z,100374.50
2023-04-25T16:57:49.103Z,100380.94
2023-04-25T17:00:18.321Z,100380.94
2023-04-25T17:02:47.366Z,100382.31
2023-04-25T17:05:15.844Z,100382.34
2023-04-25T17:07:45.272Z,100377.75
2023-04-25T17:10:13.724Z,100376.25
2023-04-25T17:12:42.426Z,100377.09
2023-04-25T17:15:11.269Z,100374.88
2023-04-25T17:17:39.380Z,100368.81
2023-04-25T17:20:08.556Z,100365.28
2023-04-25T17:22:37.205Z,100364.09
2023-04-25T17:25:08.262Z,100373.56
2023-04-25T17:27:36.728Z,100379.28
2023-04-25T17:30:05.425Z,100366.44
2023-04-25T17:32:33.497Z,100364.59
2023-04-25T17:35:01.735Z,100365.09
2023-04-25T17:37:30.300Z,100370.50
2023-04-25T17:39:58.590Z,100368.13
2023-04-25T17:42:28.262Z,100369.16
2023-04-25T17:44:56.549Z,100361.84
2023-04-25T17:47:24.917Z,100362.03
2023-04-25T17:49:54.723Z,100354.44
2023-04-25T17:52:22.853Z,100352.22
2023-04-25T17:54:51.595Z,100359.66
2023-04-25T17:57:22.069Z,100356.28
2023-04-25T17:59:51.619Z,100366.06
2023-04-25T18:02:19.780Z,100355.25
2023-04-25T18:04:48.132Z,100356.09
2023-04-25T18:07:16.402Z,100361.84
2023-04-25T18:09:44.988Z,100362.69
2023-04-25T18:12:14.955Z,100360.00
2023-04-25T18:14:43.076Z,100370.13
2023-04-25T18:17:12.746Z,100365.59
2023-04-25T18:19:40.917Z,100365.06
2023-04-25T18:22:08.980Z,100364.06
2023-04-25T18:24:37.969Z,100367.59
2023-04-25T18:27:06.543Z,100366.22
2023-04-25T18:29:34.751Z,100366.91
2023-04-25T18:32:05.094Z,100371.13
2023-04-25T18:34:35.330Z,100359.94
2023-04-25T18:37:03.803Z,100370.75
2023-04-25T18:39:31.853Z,100357.06
2023-04-25T18:42:06.463Z,100360.59
2023-04-25T18:44:39.717Z,100358.09
2023-04-25T18:47:07.836Z,100358.59
2023-04-25T18:49:38.787Z,100356.56
2023-04-25T18:52:10.687Z,100353.69
2023-04-25T18:54:39.211Z,100350.97
2023-04-25T18:57:07.288Z,100348.09
2023-04-25T18:59:35.729Z,100344.38
2023-04-25T19:02:05.577Z,100353.16
2023-04-25T19:04:34.066Z,100354.31
2023-04-25T19:07:04.314Z,100354.31
2023-04-25T19:09:32.741Z,100352.66
2023-04-25T19:12:01.902Z,100352.13
2023-04-25T19:14:30.200Z,100356.84
2023-04-25T19:16:59.492Z,100351.06
2023-04-25T19:19:28.350Z,100349.06
2023-04-25T19:21:56.999Z,100345.69
2023-04-25T19:24:27.159Z,100353.09
2023-04-25T19:26:55.637Z,100353.72
2023-04-25T19:29:24.307Z,100351.19
2023-04-25T19:31:52.870Z,100352.69
2023-04-25T19:34:21.101Z,100345.94
2023-04-25T19:36:52.779Z,100351.31
2023-04-25T19:39:22.223Z,100349.22
2023-04-25T19:41:52.072Z,100352.16
2023-04-25T19:44:20.542Z,100350.50
2023-04-25T19:46:50.158Z,100354.53
2023-04-25T19:49:19.036Z,100354.13
2023-04-25T19:51:47.927Z,100362.88
2023-04-25T19:54:16.292Z,100363.19
2023-04-25T19:56:44.472Z,100358.09
2023-04-25T19:59:14.179Z,100359.06
2023-04-25T20:01:42.848Z,100363.72
2023-04-25T20:04:12.573Z,100365.06
2023-04-25T20:06:41.399Z,100360.47
2023-04-25T20:09:09.902Z,100375.19
2023-04-25T20:11:38.586Z,100366.72
2023-04-25T20:14:07.228Z,100366.16
2023-04-25T20:16:37.647Z,100371.88
2023-04-25T20:19:06.392Z,100371.19
2023-04-25T20:21:35.437Z,100371.09
2023-04-25T20:24:04.767Z,100378.50
2023-04-25T20:26:34.338Z,100374.78
2023-04-25T20:29:04.252Z,100375.81
2023-04-25T20:31:36.967Z,100376.09
2023-04-25T20:34:06.766Z,100369.19
2023-04-25T20:36:35.542Z,100364.97
2023-04-25T20:39:04.729Z,100369.78
2023-04-25T20:41:32.867Z,100368.41
2023-04-25T20:44:03.008Z,100372.63
2023-04-25T20:46:31.864Z,100363.63
2023-04-25T20:49:01.650Z,100373.16
2023-04-25T20:51:32.472Z,100367.88
2023-04-25T20:54:04.004Z,100365.34
2023-04-25T20:56:32.906Z,100367.31
2023-04-25T20:59:01.433Z,100364.72
2023-04-25T21:01:30.056Z,100367.09
2023-04-25T21:03:59.259Z,100372.78
2023-04-25T21:06:28.733Z,100369.59
2023-04-25T21:08:58.679Z,100371.16
2023-04-25T21:11:27.264Z,100368.31
2023-04-25T21:13:55.430Z,100366.31
2023-04-25T21:16:23.582Z,100375.38
2023-04-25T21:18:52.119Z,100369.13
2023-04-25T21:21:20.427Z,100379.06
2023-04-25T21:23:48.745Z,100375.84
2023-04-25T21:26:19.949Z,100379.69
2023-04-25T21:28:49.967Z,100374.31
2023-04-25T21:31:19.109Z,100376.13
2023-04-25T21:33:47.514Z,100382.06
2023-04-25T21:36:16.045Z,100383.34
2023-04-25T21:38:45.121Z,100385.06
2023-04-25T21:41:13.933Z,100381.34
2023-04-25T21:43:43.680Z,100377.97
2023-04-25T21:46:22.967Z,100380.50
2023-04-25T21:48:53.324Z,100383.06
2023-04-25T21:51:22.909Z,100395.09
2023-04-25T21:53:51.114Z,100389.03
2023-04-25T21:56:19.297Z,100387.78
2023-04-25T21:58:48.861Z,100394.16
2023-04-25T22:01:17.196Z,100388.25
2023-04-25T22:03:45.840Z,100394.63
2023-04-25T22:06:14.078Z,100391.81
2023-04-25T22:08:43.172Z,100392.13
2023-04-25T22:11:12.483Z,100392.53
2023-04-25T22:13:40.808Z,100402.41
2023-04-25T22:16:12.355Z,100399.06
2023-04-25T22:18:42.487Z,100393.09
2023-04-25T22:21:10.566Z,100405.88
2023-04-25T22:23:38.994Z,100403.47
2023-04-25T22:26:07.875Z,100405.28
2023-04-25T22:28:36.326Z,100401.63
2023-04-25T22:31:04.497Z,100400.94
2023-04-25T22:33:34.429Z,100412.53
2023-04-25T22:36:02.613Z,100409.16
2023-04-25T22:38:31.291Z,100406.72
2023-04-25T22:40:59.770Z,100403.34
2023-04-25T22:43:29.410Z,100406.34
2023-04-25T22:45:59.020Z,100404.50
2023-04-25T22:48:27.466Z,100403.97
2023-04-25T22:51:04.403Z,100395.03
2023-04-25T22:53:34.320Z,100390.22
2023-04-25T22:56:03.155Z,100397.28
2023-04-25T22:58:32.150Z,100398.28
2023-04-25T23:01:01.018Z,100395.47
2023-04-25T23:03:29.490Z,100403.97
2023-04-25T23:05:58.768Z,100394.66
2023-04-25T23:08:28.957Z,100391.09
2023-04-25T23:10:57.708Z,100391.25
2023-04-25T23:13:25.851Z,100391.09
2023-04-25T23:15:54.155Z,100394.06
2023-04-25T23:18:22.505Z,100392.09
2023-04-25T23:20:51.020Z,100390.41
2023-04-25T23:23:19.864Z,100377.94
2023-04-25T23:25:50.226Z,100385.31
2023-04-25T23:28:18.690Z,100390.69
2023-04-25T23:30:47.110Z,100384.47
2023-04-25T23:33:15.408Z,100387.28
2023-04-25T23:35:43.612Z,100379.53
2023-04-25T23:38:12.276Z,100382.50
2023-04-25T23:40:40.543Z,100389.28
2023-04-25T23:43:10.119Z,100387.59
2023-04-25T23:45:38.596Z,100377.16
2023-04-25T23:48:06.867Z,100371.19
2023-04-25T23:50:35.249Z,100378.13
2023-04-25T23:53:04.181Z,100382.50
2023-04-25T23:55:32.625Z,100380.66
2023-04-25T23:58:00.862Z,100383.19
